Time;durP1;ratioP1;P1;durP2;ratioP2;P2;SDS_P1;SDS_P2;PMS_P1;PMS_P2;Temp;Humidity;BMP_temperature;BMP_pressure;BME280_temperature;BME280_humidity;BME280_pressure;Samples;Min_cycle;Max_cycle;Signal;HPM_P1;HPM_P2
2021/04/04 00:02:24;;;;;;;1.85;1.17;;;;;;;9.97;100.00;99919.94;5052606;28;20029;-72
2021/04/04 00:04:50;;;;;;;1.55;1.00;;;;;;;9.96;100.00;99926.97;5052367;28;20033;-72
2021/04/04 00:07:16;;;;;;;2.38;1.05;;;;;;;9.73;100.00;99925.44;5052488;28;20024;-72
2021/04/04 00:09:41;;;;;;;1.85;1.00;;;;;;;9.77;100.00;99927.66;5052308;28;20082;-72
2021/04/04 00:12:08;;;;;;;2.35;1.20;;;;;;;9.67;100.00;99921.56;5052316;28;20029;-72
2021/04/04 00:14:34;;;;;;;1.75;1.30;;;;;;;9.63;100.00;99914.91;5052330;28;20029;-72
2021/04/04 00:17:01;;;;;;;2.22;1.23;;;;;;;9.75;100.00;99934.81;5052232;28;20112;-72
2021/04/04 00:19:26;;;;;;;2.20;1.05;;;;;;;9.55;100.00;99907.72;5052201;28;20396;-73
2021/04/04 00:21:52;;;;;;;1.50;1.00;;;;;;;9.46;100.00;99905.84;5052370;28;20078;-73
2021/04/04 00:24:17;;;;;;;2.25;1.30;;;;;;;9.60;100.00;99910.75;5052400;28;20538;-73
2021/04/04 00:26:43;;;;;;;2.88;1.20;;;;;;;9.78;100.00;99952.03;5051524;28;20484;-73
2021/04/04 00:29:09;;;;;;;1.70;1.08;;;;;;;9.79;100.00;99951.94;5051730;28;20048;-73
2021/04/04 00:31:35;;;;;;;2.20;1.00;;;;;;;9.51;100.00;99915.94;5051559;28;20060;-72
2021/04/04 00:34:01;;;;;;;2.40;1.13;;;;;;;9.64;100.00;99954.03;5051410;28;20087;-72
2021/04/04 00:36:26;;;;;;;1.52;1.00;;;;;;;9.48;100.00;99932.69;5051387;28;20461;-73
2021/04/04 00:38:53;;;;;;;1.30;0.80;;;;;;;9.44;100.00;99937.34;5051542;28;20021;-73
2021/04/04 00:41:18;;;;;;;1.98;1.27;;;;;;;9.59;100.00;99965.84;5051378;28;20480;-73
2021/04/04 00:43:44;;;;;;;2.70;1.00;;;;;;;9.57;100.00;99978.22;5051195;28;20021;-73
2021/04/04 00:46:09;;;;;;;3.60;0.82;;;;;;;9.56;100.00;99977.38;5051428;28;20404;-73
2021/04/04 00:48:35;;;;;;;2.30;1.00;;;;;;;9.36;100.00;99944.19;5050148;28;20040;-73
2021/04/04 00:51:00;;;;;;;2.05;0.93;;;;;;;9.60;100.00;99978.78;5052470;28;20036;-70
2021/04/04 00:53:26;;;;;;;1.23;0.80;;;;;;;9.79;100.00;99987.75;5055980;28;20029;-72
2021/04/04 00:55:51;;;;;;;1.45;0.70;;;;;;;9.50;100.00;99958.75;5056212;28;20021;-73
2021/04/04 00:58:17;;;;;;;2.40;0.70;;;;;;;9.69;100.00;99998.16;5055839;28;20495;-73
2021/04/04 01:00:42;;;;;;;3.53;1.17;;;;;;;9.58;100.00;99970.22;5055673;28;20500;-73
2021/04/04 01:03:08;;;;;;;0.85;0.70;;;;;;;9.65;100.00;99955.72;5055509;28;20108;-73
2021/04/04 01:05:42;;;;;;;3.25;0.95;;;;;;;9.78;100.00;99988.69;5055957;28;20025;-73
2021/04/04 01:08:08;;;;;;;1.75;0.90;;;;;;;9.57;100.00;99944.19;5056228;28;20383;-72
2021/04/04 01:10:36;;;;;;;1.00;0.60;;;;;;;9.64;100.00;99972.34;5055538;28;20024;-72
2021/04/04 01:13:40;;;;;;;1.88;1.02;;;;;;;9.68;100.00;99976.34;5055603;28;20032;-72
2021/04/04 01:16:19;;;;;;;2.45;0.90;;;;;;;9.42;100.00;99935.84;5055988;28;20037;-72
2021/04/04 01:19:08;;;;;;;0.88;0.70;;;;;;;9.64;100.00;99964.50;5055654;28;20060;-73
2021/04/04 01:21:45;;;;;;;1.77;0.70;;;;;;;9.67;100.00;99972.09;5055840;28;20119;-72
2021/04/04 01:24:28;;;;;;;1.33;0.70;;;;;;;9.69;100.00;99970.19;5055143;28;20052;-72
2021/04/04 01:27:04;;;;;;;1.33;0.80;;;;;;;9.18;100.00;99936.91;5055704;28;20476;-72
2021/04/04 01:29:33;;;;;;;1.67;0.80;;;;;;;9.28;100.00;99970.13;5055204;28;20029;-72
2021/04/04 01:31:59;;;;;;;1.80;1.00;;;;;;;9.34;100.00;99972.25;5055184;28;20052;-72
2021/04/04 01:34:29;;;;;;;1.17;0.90;;;;;;;9.29;100.00;99977.84;5055145;28;20021;-73
2021/04/04 01:36:56;;;;;;;;;;;;;;;9.38;100.00;99978.88;5055595;28;20511;-73
2021/04/04 01:39:26;;;;;;;2.25;0.90;;;;;;;9.08;100.00;99969.97;5055259;28;19908;-73
2021/04/04 01:41:53;;;;;;;0.77;0.77;;;;;;;9.09;100.00;99950.69;5054693;28;20025;-73
2021/04/04 01:44:21;;;;;;;0.82;0.80;;;;;;;9.10;100.00;99923.59;5053460;28;20115;-73
2021/04/04 01:46:49;;;;;;;1.00;0.70;;;;;;;9.08;100.00;99894.16;5053441;28;20078;-73
2021/04/04 01:49:16;;;;;;;1.88;0.90;;;;;;;9.49;100.00;99937.00;5054575;28;20037;-73
2021/04/04 01:51:44;;;;;;;0.80;0.70;;;;;;;9.47;100.00;99936.28;5054801;28;20033;-73
2021/04/04 01:54:11;;;;;;;1.20;0.90;;;;;;;9.46;100.00;99939.88;5054664;28;20025;-73
2021/04/04 01:56:37;;;;;;;2.22;1.40;;;;;;;9.35;100.00;99932.91;5054892;28;20070;-73
2021/04/04 01:59:04;;;;;;;3.28;1.20;;;;;;;9.45;100.00;99959.97;5054580;28;20108;-73
2021/04/04 02:01:31;;;;;;;2.63;1.30;;;;;;;9.39;100.00;99962.25;5053301;28;20071;-73
2021/04/04 02:04:05;;;;;;;2.20;1.38;;;;;;;9.35;100.00;99971.31;5054096;28;20543;-73
2021/04/04 02:06:32;;;;;;;2.60;1.35;;;;;;;9.00;100.00;99954.03;5053229;28;20029;-73
2021/04/04 02:08:58;;;;;;;2.38;1.50;;;;;;;8.95;100.00;99966.66;5053165;28;20025;-73
2021/04/04 02:11:27;;;;;;;1.88;1.13;;;;;;;8.94;100.00;99958.00;5054010;28;20028;-73
2021/04/04 02:13:53;;;;;;;2.53;1.00;;;;;;;8.82;100.00;99963.38;5054307;28;20021;-73
2021/04/04 02:16:20;;;;;;;2.55;1.50;;;;;;;8.77;100.00;99931.53;5054342;28;20039;-73
2021/04/04 02:18:46;;;;;;;1.27;0.77;;;;;;;8.66;100.00;99941.06;5054110;28;20499;-72
2021/04/04 02:21:13;;;;;;;1.90;0.80;;;;;;;8.49;100.00;99923.28;5054167;28;20029;-72
2021/04/04 02:23:40;;;;;;;0.90;0.70;;;;;;;8.62;100.00;99970.16;5053039;28;20025;-72
2021/04/04 02:26:05;;;;;;;0.90;0.55;;;;;;;8.10;100.00;99907.13;5054232;28;20029;-72
2021/04/04 02:28:31;;;;;;;1.60;0.82;;;;;;;8.45;100.00;99946.19;5054231;28;20472;-73
2021/04/04 02:30:58;;;;;;;1.20;0.70;;;;;;;8.61;100.00;99969.34;5054131;28;20480;-72
2021/04/04 02:33:56;;;;;;;2.95;0.80;;;;;;;8.83;100.00;99991.16;5054041;28;20032;-72
2021/04/04 02:36:24;;;;;;;1.08;0.70;;;;;;;8.65;100.00;99947.25;5045850;28;20033;-72
2021/04/04 02:39:26;;;;;;;4.78;0.80;;;;;;;8.99;100.00;99983.75;5054055;28;20025;-73
2021/04/04 02:41:54;;;;;;;1.88;0.90;;;;;;;9.03;100.00;99973.88;5050527;28;20381;-72
2021/04/04 02:44:21;;;;;;;1.40;0.80;;;;;;;9.08;100.00;99963.88;5073959;28;20068;-72
2021/04/04 02:47:02;;;;;;;0.93;0.77;;;;;;;8.99;100.00;99941.94;5073889;28;20028;-73
2021/04/04 02:49:29;;;;;;;1.90;1.20;;;;;;;9.12;100.00;99981.00;5073676;28;20032;-73
2021/04/04 02:51:58;;;;;;;5.18;0.90;;;;;;;9.11;100.00;99977.56;5074213;28;20055;-73
2021/04/04 02:54:26;;;;;;;3.10;1.02;;;;;;;9.09;100.00;99957.72;5072459;28;20498;-73
2021/04/04 02:56:54;;;;;;;1.35;0.90;;;;;;;8.94;100.00;99954.53;5073486;28;20074;-73
2021/04/04 02:59:30;;;;;;;1.90;1.00;;;;;;;8.95;100.00;99988.41;5073700;28;20090;-73
2021/04/04 03:02:00;;;;;;;4.95;1.00;;;;;;;8.86;100.00;99994.34;5073033;28;20147;-73
2021/04/04 03:04:28;;;;;;;2.00;0.93;;;;;;;8.75;100.00;99999.59;5073513;28;20035;-73
2021/04/04 03:06:56;;;;;;;1.80;0.90;;;;;;;8.60;100.00;99967.66;5070361;28;20032;-74
2021/04/04 03:09:22;;;;;;;1.67;0.90;;;;;;;8.78;100.00;100006.38;5051529;28;20102;-73
2021/04/04 03:11:49;;;;;;;0.95;0.70;;;;;;;8.63;100.00;99983.09;5051687;28;20040;-73
2021/04/04 03:14:15;;;;;;;1.70;1.10;;;;;;;8.84;100.00;100011.09;5050283;28;20100;-73
2021/04/04 03:16:41;;;;;;;3.10;1.10;;;;;;;8.55;100.00;99980.25;5051347;28;20021;-74
2021/04/04 03:19:09;;;;;;;2.28;1.30;;;;;;;8.65;100.00;99981.19;5051676;28;20029;-74
2021/04/04 03:21:36;;;;;;;1.58;0.70;;;;;;;8.98;100.00;100005.63;5051587;28;20115;-73
2021/04/04 03:24:04;;;;;;;0.50;0.50;;;;;;;8.86;100.00;99978.66;5052932;28;20036;-73
2021/04/04 03:26:30;;;;;;;1.63;0.65;;;;;;;9.10;100.00;100020.31;5052574;28;20381;-73
2021/04/04 03:28:57;;;;;;;1.58;0.70;;;;;;;9.07;100.00;100001.44;5052305;28;20116;-73
2021/04/04 03:31:23;;;;;;;1.00;0.60;;;;;;;8.89;100.00;100004.56;5052389;28;20405;-73
2021/04/04 03:33:49;;;;;;;2.13;0.70;;;;;;;8.84;100.00;100058.13;5047715;28;20399;-74
2021/04/04 03:36:17;;;;;;;4.57;0.90;;;;;;;8.61;100.00;100054.72;5046243;28;20029;-73
2021/04/04 03:38:45;;;;;;;1.73;0.90;;;;;;;8.65;100.00;100049.13;5046903;28;20025;-73
2021/04/04 03:41:12;;;;;;;1.92;0.95;;;;;;;8.73;100.00;100048.53;5046659;28;20992;-72
2021/04/04 03:43:39;;;;;;;0.95;0.75;;;;;;;8.91;100.00;100069.78;5044793;28;20039;-72
2021/04/04 03:46:09;;;;;;;0.80;0.60;;;;;;;8.83;100.00;100093.06;5044383;28;20035;-72
2021/04/04 03:48:35;;;;;;;2.93;0.80;;;;;;;8.65;100.00;100053.53;5045393;28;20056;-72
2021/04/04 03:51:04;;;;;;;1.27;0.90;;;;;;;9.01;100.00;100072.50;5047290;28;20824;-72
2021/04/04 03:53:34;;;;;;;3.45;0.90;;;;;;;8.96;100.00;100067.66;5046606;28;20373;-73
2021/04/04 03:56:01;;;;;;;0.75;0.63;;;;;;;8.94;100.00;100061.69;5046594;28;20041;-73
2021/04/04 03:58:29;;;;;;;0.50;0.50;;;;;;;9.04;100.00;100060.00;5046537;28;20032;-73
2021/04/04 04:00:57;;;;;;;2.78;0.80;;;;;;;8.75;100.00;100046.63;5062013;28;20599;-73
2021/04/04 04:03:23;;;;;;;1.58;0.60;;;;;;;8.82;100.00;100054.81;5046961;28;20044;-74
2021/04/04 04:05:50;;;;;;;11.90;7.15;;;;;;;8.63;100.00;100030.09;5055851;28;20029;-73
2021/04/04 04:08:18;;;;;;;2.88;0.90;;;;;;;8.44;100.00;100030.72;5044820;28;20274;-73
2021/04/04 04:10:45;;;;;;;3.03;0.60;;;;;;;8.59;100.00;100085.34;5034749;28;20043;-72
2021/04/04 04:13:12;;;;;;;35.03;25.05;;;;;;;8.55;100.00;100089.97;5046366;28;20548;-73
2021/04/04 04:15:38;;;;;;;105.88;78.35;;;;;;;8.61;100.00;100076.44;5046655;28;20032;-74
2021/04/04 04:18:05;;;;;;;22.83;17.73;;;;;;;8.48;100.00;100075.72;5045559;28;20053;-73
2021/04/04 04:20:32;;;;;;;1.67;1.00;;;;;;;8.52;100.00;100054.44;5049547;28;20029;-74
2021/04/04 04:22:59;;;;;;;1.35;0.80;;;;;;;8.54;100.00;100062.19;5046811;28;20476;-72
2021/04/04 04:25:28;;;;;;;0.90;0.50;;;;;;;8.50;100.00;100060.72;5046197;28;20024;-72
2021/04/04 04:27:54;;;;;;;1.38;0.95;;;;;;;8.66;100.00;100045.56;5046450;28;20041;-72
2021/04/04 04:30:21;;;;;;;2.20;1.10;;;;;;;8.81;100.00;100059.22;5061026;28;20071;-73
2021/04/04 04:32:52;;;;;;;4.45;3.10;;;;;;;8.61;100.00;100026.81;5046537;28;20036;-72
2021/04/04 04:35:19;;;;;;;0.52;0.40;;;;;;;8.95;100.00;100060.75;5045748;28;20059;-73
2021/04/04 04:37:45;;;;;;;2.70;1.70;;;;;;;9.07;100.00;100069.41;5061017;28;20033;-72
2021/04/04 04:40:11;;;;;;;1.50;0.65;;;;;;;8.91;100.00;100028.81;5047188;28;20035;-72
2021/04/04 04:42:41;;;;;;;1.08;0.38;;;;;;;9.25;100.00;100083.66;5046714;28;20032;-73
2021/04/04 04:45:14;;;;;;;1.08;0.50;;;;;;;9.08;100.00;100056.22;5045224;28;20032;-74
2021/04/04 04:47:41;;;;;;;1.30;0.73;;;;;;;9.21;100.00;100080.47;5046291;28;20029;-72
2021/04/04 04:50:08;;;;;;;4.40;1.80;;;;;;;9.38;100.00;100083.50;5045351;28;20082;-73
2021/04/04 04:52:33;;;;;;;4.32;1.13;;;;;;;8.94;100.00;100007.66;5045229;28;20139;-72
2021/04/04 04:54:59;;;;;;;51.88;40.95;;;;;;;9.18;100.00;100051.94;5045972;28;20139;-72
2021/04/04 04:57:25;;;;;;;104.53;74.05;;;;;;;9.21;100.00;100082.22;5046473;28;20037;-73
2021/04/04 04:59:50;;;;;;;38.97;29.70;;;;;;;9.07;100.00;100065.00;5045565;28;20840;-73
2021/04/04 05:02:18;;;;;;;6.00;4.35;;;;;;;8.85;100.00;100065.88;5046629;28;20036;-73
2021/04/04 05:04:46;;;;;;;6.93;2.88;;;;;;;9.10;100.00;100101.38;5045606;28;20040;-73
2021/04/04 05:07:12;;;;;;;4.75;2.90;;;;;;;8.96;100.00;100107.69;5046331;28;20108;-72
2021/04/04 05:09:41;;;;;;;4.30;2.90;;;;;;;8.78;100.00;100110.91;5045984;28;20029;-72
2021/04/04 05:12:07;;;;;;;4.97;2.80;;;;;;;8.79;100.00;100123.81;5045837;28;20067;-73
2021/04/04 05:14:33;;;;;;;28.58;5.72;;;;;;;8.78;100.00;100124.78;5046348;28;20503;-73
2021/04/04 05:16:58;;;;;;;4.38;2.90;;;;;;;8.59;100.00;100114.91;5046558;28;20032;-73
2021/04/04 05:19:24;;;;;;;5.72;3.10;;;;;;;8.58;100.00;100123.69;5046843;28;20539;-72
2021/04/04 05:21:50;;;;;;;6.25;3.25;;;;;;;8.66;100.00;100113.47;5044391;28;20036;-74
2021/04/04 05:24:16;;;;;;;6.78;3.65;;;;;;;8.75;100.00;100123.22;5045436;28;20036;-73
2021/04/04 05:26:43;;;;;;;11.10;5.03;;;;;;;8.97;100.00;100139.88;5046046;28;20082;-72
2021/04/04 05:29:13;;;;;;;14.13;6.45;;;;;;;9.02;100.00;100144.75;5044617;28;20484;-72
2021/04/04 05:31:53;;;;;;;10.52;5.40;;;;;;;9.06;100.00;100136.56;5044923;28;20025;-74
2021/04/04 05:34:23;;;;;;;;;;;;;;;9.06;100.00;100154.84;5045778;28;20029;-72
2021/04/04 05:36:59;;;;;;;16.00;8.73;;;;;;;9.01;100.00;100157.00;5045514;28;19916;-71
2021/04/04 05:39:27;;;;;;;16.17;8.35;;;;;;;8.78;100.00;100129.19;5062654;28;20064;-72
2021/04/04 05:41:54;;;;;;;11.32;7.43;;;;;;;9.02;100.00;100161.28;5049543;28;20139;-72
2021/04/04 05:44:34;;;;;;;14.90;10.45;;;;;;;9.04;100.00;100159.34;5049770;28;20067;-72
2021/04/04 05:47:25;;;;;;;22.08;9.05;;;;;;;8.90;100.00;100134.28;5049373;28;20103;-72
2021/04/04 05:50:01;;;;;;;15.00;8.07;;;;;;;9.17;100.00;100172.31;5049862;28;20040;-74
2021/04/04 05:52:54;;;;;;;11.68;7.68;;;;;;;9.04;100.00;100133.22;5049943;28;20029;-72
2021/04/04 05:55:44;;;;;;;13.95;7.22;;;;;;;9.19;100.00;100171.25;5048960;28;20029;-73
2021/04/04 05:58:22;;;;;;;10.07;6.40;;;;;;;9.21;100.00;100165.91;5049364;28;20476;-74
2021/04/04 06:00:52;;;;;;;17.55;6.05;;;;;;;9.16;100.00;100163.66;5048939;28;20484;-73
2021/04/04 06:03:36;;;;;;;;;;;;;;;9.36;100.00;100179.56;5048274;28;20033;-72
2021/04/04 06:06:38;;;;;;;12.27;7.18;;;;;;;9.44;100.00;100179.78;5049488;28;19974;-72
2021/04/04 06:09:50;;;;;;;10.88;6.65;;;;;;;9.51;100.00;100167.91;5048830;28;20497;-72
2021/04/04 06:12:59;;;;;;;8.50;5.72;;;;;;;9.58;100.00;100163.84;5042951;28;20045;-72
2021/04/04 06:16:08;;;;;;;8.48;6.10;;;;;;;9.66;100.00;100174.53;4998761;28;20073;-72
2021/04/04 06:19:05;;;;;;;10.30;6.97;;;;;;;9.65;100.00;100178.13;5005126;28;20141;-73
2021/04/04 06:22:02;;;;;;;11.32;7.03;;;;;;;9.69;100.00;100176.09;5037770;28;20060;-71
2021/04/04 06:24:47;;;;;;;8.10;5.57;;;;;;;9.81;100.00;100175.09;5027728;28;20117;-72
2021/04/04 06:27:33;;;;;;;9.40;5.35;;;;;;;9.53;100.00;100150.31;5048707;28;20041;-72
2021/04/04 06:30:01;;;;;;;8.90;5.70;;;;;;;9.84;100.00;100189.72;5048839;28;20029;-72
2021/04/04 06:32:46;;;;;;;8.75;5.78;;;;;;;9.54;100.00;100193.00;5048984;28;20036;-73
2021/04/04 06:35:39;;;;;;;7.38;5.22;;;;;;;9.56;100.00;100186.69;5049022;28;20056;-72
2021/04/04 06:38:32;;;;;;;8.25;5.60;;;;;;;9.62;100.00;100198.47;5046738;28;20124;-73
2021/04/04 06:41:02;;;;;;;8.75;6.35;;;;;;;9.52;100.00;100168.72;5048702;28;20037;-72
2021/04/04 06:43:51;;;;;;;10.77;5.97;;;;;;;9.89;100.00;100204.13;5064031;28;20029;-72
2021/04/04 06:46:38;;;;;;;13.73;9.07;;;;;;;9.84;100.00;100213.28;5036844;28;20051;-72
2021/04/04 06:49:19;;;;;;;10.63;7.97;;;;;;;9.73;100.00;100215.94;5045585;28;20033;-73
2021/04/04 06:52:09;;;;;;;11.45;8.55;;;;;;;9.62;100.00;100190.63;5046546;28;20052;-72
2021/04/04 06:54:47;;;;;;;11.63;8.07;;;;;;;9.66;100.00;100212.97;5048252;28;20020;-72
2021/04/04 06:57:50;;;;;;;10.70;7.78;;;;;;;9.73;100.00;100234.25;5047556;28;20104;-72
2021/04/04 07:00:37;;;;;;;10.45;6.72;;;;;;;9.78;100.00;100238.16;5047933;28;20041;-72
2021/04/04 07:03:09;;;;;;;11.50;8.02;;;;;;;9.49;100.00;100235.22;5047309;28;20033;-72
2021/04/04 07:05:49;;;;;;;11.95;7.90;;;;;;;9.54;100.00;100224.38;5047788;28;20021;-73
2021/04/04 07:08:28;;;;;;;11.80;8.18;;;;;;;9.59;100.00;100232.72;5049055;28;20037;-71
2021/04/04 07:11:15;;;;;;;12.93;8.18;;;;;;;9.73;100.00;100216.75;5061768;28;20039;-72
2021/04/04 07:13:59;;;;;;;12.10;7.25;;;;;;;9.76;100.00;100226.16;5047346;28;20017;-68
2021/04/04 07:16:34;;;;;;;11.43;8.57;;;;;;;9.70;100.00;100236.16;5078258;28;20492;-72
2021/04/04 07:19:05;;;;;;;22.48;16.05;;;;;;;9.79;100.00;100228.53;5047443;28;20045;-72
2021/04/04 07:21:30;;;;;;;14.10;10.20;;;;;;;9.76;100.00;100242.69;5063329;28;20534;-72
2021/04/04 07:24:31;;;;;;;14.00;9.77;;;;;;;9.77;100.00;100246.13;5047682;28;20025;-72
2021/04/04 07:27:15;;;;;;;13.80;10.35;;;;;;;9.77;100.00;100251.38;5039500;28;20121;-73
2021/04/04 07:29:48;;;;;;;14.55;10.65;;;;;;;9.68;100.00;100227.56;5047747;28;20139;-69
2021/04/04 07:32:29;;;;;;;15.55;12.00;;;;;;;9.68;100.00;100231.97;5047616;28;20182;-72
2021/04/04 07:35:28;;;;;;;17.45;13.63;;;;;;;9.80;100.00;100261.59;5050556;28;20154;-71
2021/04/04 07:38:00;;;;;;;17.88;13.07;;;;;;;9.90;100.00;100239.81;5051912;28;20021;-70
2021/04/04 07:40:34;;;;;;;19.80;12.73;;;;;;;9.95;100.00;100249.91;5052325;28;20524;-71
2021/04/04 07:43:06;;;;;;;14.25;10.65;;;;;;;10.15;100.00;100270.09;5049605;28;20032;-71
2021/04/04 07:45:49;;;;;;;14.07;10.05;;;;;;;9.92;100.00;100269.31;5049664;28;20115;-71
2021/04/04 07:48:21;;;;;;;14.45;11.18;;;;;;;9.94;100.00;100290.13;5050508;28;20028;-71
2021/04/04 07:51:12;;;;;;;15.23;11.35;;;;;;;9.85;100.00;100277.75;5050264;28;20564;-71
2021/04/04 07:54:18;;;;;;;13.85;11.50;;;;;;;9.79;100.00;100270.41;5048854;28;20072;-71
2021/04/04 07:56:56;;;;;;;14.20;11.35;;;;;;;9.89;100.00;100271.34;5051636;28;20404;-70
2021/04/04 07:59:47;;;;;;;15.00;11.18;;;;;;;10.03;100.00;100278.94;5052345;28;20086;-70
2021/04/04 08:02:29;;;;;;;13.32;10.23;;;;;;;9.90;100.00;100267.78;5052451;28;20080;-71
2021/04/04 08:05:02;;;;;;;12.18;9.25;;;;;;;9.75;100.00;100232.31;5052415;28;20045;-70
2021/04/04 08:07:41;;;;;;;12.40;8.75;;;;;;;10.06;100.00;100278.69;5052755;28;20086;-71
2021/04/04 08:10:13;;;;;;;13.57;10.25;;;;;;;9.72;100.00;100250.88;5052458;28;20395;-70
2021/04/04 08:12:44;;;;;;;13.07;10.60;;;;;;;9.93;100.00;100294.53;5051689;28;20071;-71
2021/04/04 08:15:17;;;;;;;12.18;8.82;;;;;;;10.02;100.00;100282.50;5052888;28;20036;-70
2021/04/04 08:17:42;;;;;;;13.85;8.48;;;;;;;9.93;100.00;100247.41;5052683;28;20492;-71
2021/04/04 08:20:11;;;;;;;10.80;7.63;;;;;;;10.13;100.00;100268.56;5052264;28;20040;-71
2021/04/04 08:22:41;;;;;;;11.55;8.32;;;;;;;10.02;100.00;100266.78;5052222;28;20044;-70
2021/04/04 08:25:21;;;;;;;11.98;8.77;;;;;;;10.12;100.00;100272.13;5052535;28;20033;-71
2021/04/04 08:27:56;;;;;;;11.70;8.80;;;;;;;9.99;100.00;100256.59;5052472;28;20535;-71
2021/04/04 08:30:45;;;;;;;13.25;9.50;;;;;;;10.09;100.00;100290.69;5052287;28;20051;-71
2021/04/04 08:33:21;;;;;;;11.32;8.40;;;;;;;10.06;100.00;100294.41;5052229;28;20508;-71
2021/04/04 08:35:51;;;;;;;9.57;6.45;;;;;;;9.87;100.00;100294.19;5052750;28;20041;-71
2021/04/04 08:38:26;;;;;;;;;;;;;;;9.68;100.00;100306.06;5052439;28;20059;-71
2021/04/04 08:40:56;;;;;;;9.52;7.10;;;;;;;9.62;100.00;100262.09;5067756;28;20295;-71
2021/04/04 08:43:23;;;;;;;11.05;8.30;;;;;;;9.68;100.00;100293.00;5052055;28;20025;-71
2021/04/04 08:46:11;;;;;;;11.93;8.02;;;;;;;9.78;100.00;100298.34;5051968;28;20025;-71
2021/04/04 08:48:39;;;;;;;13.25;7.35;;;;;;;9.80;100.00;100282.53;5052292;28;20123;-71
2021/04/04 08:51:09;;;;;;;9.95;7.68;;;;;;;10.08;100.00;100297.72;5052547;28;20092;-71
2021/04/04 08:53:41;;;;;;;10.65;7.32;;;;;;;9.73;100.00;100263.03;5052153;28;20029;-71
2021/04/04 08:56:07;;;;;;;10.15;7.53;;;;;;;9.87;100.00;100258.38;5052347;28;20029;-71
2021/04/04 08:58:45;;;;;;;10.35;8.05;;;;;;;9.55;100.00;100274.00;5052192;28;20469;-71
2021/04/04 09:01:31;;;;;;;12.52;8.90;;;;;;;9.84;100.00;100295.25;5051568;28;20073;-70
2021/04/04 09:03:59;;;;;;;8.20;5.95;;;;;;;10.04;100.00;100282.38;5051862;28;20072;-71
2021/04/04 09:06:34;;;;;;;9.48;6.43;;;;;;;9.56;100.00;100259.94;5051915;28;20031;-71
2021/04/04 09:09:00;;;;;;;8.82;6.28;;;;;;;9.35;100.00;100256.38;5052175;28;20067;-71
2021/04/04 09:11:26;;;;;;;8.65;6.60;;;;;;;9.40;100.00;100296.09;5053037;28;20025;-71
2021/04/04 09:13:58;;;;;;;7.88;6.22;;;;;;;9.20;100.00;100302.81;5054864;28;20036;-71
2021/04/04 09:16:24;;;;;;;8.65;6.28;;;;;;;9.04;100.00;100290.06;5055789;28;20025;-71
2021/04/04 09:18:51;;;;;;;9.30;6.80;;;;;;;8.83;100.00;100218.50;5055906;28;20446;-71
2021/04/04 09:21:21;;;;;;;9.48;7.13;;;;;;;9.21;100.00;100307.09;5055470;28;20103;-71
2021/04/04 09:23:49;;;;;;;8.90;6.93;;;;;;;9.20;100.00;100297.59;5055403;28;20112;-71
2021/04/04 09:26:22;;;;;;;9.60;6.60;;;;;;;8.89;100.00;100276.38;5055703;28;20033;-71
2021/04/04 09:28:48;;;;;;;10.02;7.57;;;;;;;9.20;100.00;100301.03;5055470;28;20140;-71
2021/04/04 09:31:29;;;;;;;8.75;6.38;;;;;;;9.54;100.00;100314.16;5055324;28;20108;-71
2021/04/04 09:34:11;;;;;;;7.93;6.20;;;;;;;9.21;100.00;100268.72;5055876;28;20024;-71
2021/04/04 09:36:50;;;;;;;8.68;6.28;;;;;;;9.18;100.00;100284.66;5055621;28;20090;-71
2021/04/04 09:39:20;;;;;;;10.85;6.22;;;;;;;9.50;100.00;100301.44;5055243;28;20037;-71
2021/04/04 09:41:46;;;;;;;7.78;5.72;;;;;;;9.32;100.00;100283.59;5055298;28;20064;-71
2021/04/04 09:44:12;;;;;;;8.35;5.88;;;;;;;9.70;100.00;100303.34;5055504;28;20029;-71
2021/04/04 09:46:54;;;;;;;7.88;6.28;;;;;;;9.44;100.00;100251.25;5055065;28;20063;-71
2021/04/04 09:49:53;;;;;;;6.97;5.60;;;;;;;9.45;100.00;100283.50;5055026;28;20029;-71
2021/04/04 09:52:27;;;;;;;8.50;5.10;;;;;;;9.67;100.00;100286.09;5054859;28;20041;-72
2021/04/04 09:55:11;;;;;;;7.05;5.07;;;;;;;9.60;100.00;100271.00;5055012;28;20025;-71
2021/04/04 09:57:47;;;;;;;7.72;5.60;;;;;;;9.72;100.00;100264.81;5054760;28;20066;-72
2021/04/04 10:00:29;;;;;;;8.93;5.60;;;;;;;9.68;100.00;100269.44;5055128;28;20044;-71
2021/04/04 10:02:57;;;;;;;9.32;6.00;;;;;;;9.41;100.00;100268.97;5054702;28;20102;-72
2021/04/04 10:05:32;;;;;;;8.63;6.60;;;;;;;9.51;100.00;100254.22;5054699;28;20029;-72
2021/04/04 10:08:17;;;;;;;8.95;6.28;;;;;;;9.27;100.00;100235.19;5055022;28;20400;-71
2021/04/04 10:10:52;;;;;;;8.68;6.18;;;;;;;9.19;100.00;100252.31;5054568;28;20032;-71
2021/04/04 10:13:24;;;;;;;8.05;5.88;;;;;;;9.25;100.00;100264.09;5054532;28;20021;-72
2021/04/04 10:15:51;;;;;;;8.85;5.45;;;;;;;9.42;100.00;100250.56;5054530;28;20082;-71
2021/04/04 10:18:19;;;;;;;7.68;5.22;;;;;;;9.49;100.00;100255.31;5054247;28;20549;-72
2021/04/04 10:21:07;;;;;;;9.05;7.07;;;;;;;9.26;100.00;100223.91;5054419;28;20029;-72
2021/04/04 10:23:34;;;;;;;8.15;5.80;;;;;;;9.17;100.00;100227.22;5053518;28;20025;-71
2021/04/04 10:26:03;;;;;;;8.70;5.90;;;;;;;9.31;100.00;100261.00;5054509;28;20031;-72
2021/04/04 10:28:47;;;;;;;9.07;6.18;;;;;;;9.05;100.00;100225.56;5054638;28;20028;-71
2021/04/04 10:31:15;;;;;;;7.47;5.47;;;;;;;9.35;100.00;100227.63;5054384;28;20035;-72
2021/04/04 10:33:40;;;;;;;9.05;6.60;;;;;;;9.41;100.00;100248.03;5054172;28;20463;-71
2021/04/04 10:36:17;;;;;;;7.63;5.90;;;;;;;9.63;100.00;100276.81;5054090;28;20061;-71
2021/04/04 10:38:43;;;;;;;10.85;6.78;;;;;;;9.51;100.00;100256.00;5052848;28;20395;-70
2021/04/04 10:41:09;;;;;;;11.15;7.68;;;;;;;9.57;100.00;100272.06;5054056;28;20025;-70
2021/04/04 10:43:42;;;;;;;13.18;8.95;;;;;;;9.70;100.00;100309.41;5053954;28;20035;-70
2021/04/04 10:46:09;;;;;;;9.07;7.18;;;;;;;9.45;100.00;100320.94;5054017;28;20082;-70
2021/04/04 10:48:56;;;;;;;8.82;6.35;;;;;;;9.14;100.00;100283.19;5053876;28;20036;-70
2021/04/04 10:51:22;;;;;;;8.70;6.70;;;;;;;9.29;100.00;100294.28;5054343;28;20029;-70
2021/04/04 10:53:48;;;;;;;9.10;7.32;;;;;;;9.31;100.00;100315.91;5054092;28;20083;-70
2021/04/04 10:56:15;;;;;;;10.07;6.65;;;;;;;9.07;100.00;100309.91;5053871;28;20029;-70
2021/04/04 10:58:41;;;;;;;9.57;6.78;;;;;;;8.67;100.00;100292.81;5053562;28;20472;-70
2021/04/04 11:01:08;;;;;;;10.40;7.60;;;;;;;8.33;100.00;100262.22;5053601;28;20136;-71
2021/04/04 11:03:34;;;;;;;9.25;7.60;;;;;;;8.61;100.00;100248.84;5053581;28;20021;-71
2021/04/04 11:06:00;;;;;;;10.57;7.70;;;;;;;9.10;100.00;100294.84;5053767;28;20485;-71
2021/04/04 11:08:27;;;;;;;11.05;8.15;;;;;;;9.17;100.00;100295.22;5053466;28;20029;-71
2021/04/04 11:10:53;;;;;;;9.68;7.55;;;;;;;8.92;100.00;100291.00;5053379;28;20029;-71
2021/04/04 11:13:20;;;;;;;10.35;7.20;;;;;;;8.70;100.00;100281.28;5053483;28;20033;-71
2021/04/04 11:15:53;;;;;;;12.57;9.10;;;;;;;8.71;100.00;100272.53;5053359;28;20171;-71
2021/04/04 11:18:41;;;;;;;10.52;7.72;;;;;;;8.66;100.00;100257.16;5053626;28;20100;-71
2021/04/04 11:21:12;;;;;;;10.80;8.25;;;;;;;8.47;100.00;100269.91;5053496;28;20111;-71
2021/04/04 11:23:38;;;;;;;13.73;9.15;;;;;;;8.43;100.00;100261.47;5053151;28;20072;-71
2021/04/04 11:26:36;;;;;;;15.93;8.45;;;;;;;8.43;100.00;100252.81;5053101;28;20029;-71
2021/04/04 11:29:11;;;;;;;10.23;7.45;;;;;;;8.17;100.00;100258.13;5053307;28;20021;-71
2021/04/04 11:31:38;;;;;;;13.82;8.02;;;;;;;8.07;100.00;100225.78;5052995;28;20025;-71
2021/04/04 11:34:22;;;;;;;8.55;5.75;;;;;;;8.13;100.00;100259.25;5052794;28;20033;-71
2021/04/04 11:36:48;;;;;;;14.15;8.80;;;;;;;8.35;100.00;100253.34;5052908;28;20036;-71
2021/04/04 11:39:13;;;;;;;10.05;6.72;;;;;;;8.16;100.00;100240.78;5052750;28;20025;-71
2021/04/04 11:41:53;;;;;;;7.95;5.82;;;;;;;8.00;100.00;100220.19;5053248;28;20116;-71
2021/04/04 11:44:28;;;;;;;8.82;6.22;;;;;;;8.19;100.00;100245.78;5053091;28;20113;-71
2021/04/04 11:46:59;;;;;;;8.43;6.30;;;;;;;8.15;100.00;100217.41;5052943;28;20087;-71
2021/04/04 11:49:30;;;;;;;8.25;5.68;;;;;;;8.12;100.00;100222.84;5053090;28;20072;-71
2021/04/04 11:52:08;;;;;;;9.27;6.50;;;;;;;8.12;100.00;100213.22;5053119;28;20507;-71